Time;durP1;ratioP1;P1;durP2;ratioP2;P2;SDS_P1;SDS_P2;PMS_P1;PMS_P2;Temp;Humidity;BMP_temperature;BMP_pressure;BME280_temperature;BME280_humidity;BME280_pressure;Samples;Min_cycle;Max_cycle;Signal;HPM_P1;HPM_P2
2022/11/02 07:28:00;;;;;;;0.27;0.27;;;;;;;17.79;50.42;100560.50;5803020;24;20022;31
2022/11/02 16:35:40;;;;;;;0.50;0.45;;;;;;;17.75;48.36;100583.66;5311907;24;20326;31
2022/11/02 16:38:07;;;;;;;0.60;0.60;;;;;;;17.54;48.39;100584.16;4740004;30;20106;-96
2022/11/02 16:40:33;;;;;;;0.43;0.43;;;;;;;17.49;49.16;100576.75;4721468;30;20029;-96
2022/11/02 16:43:01;;;;;;;0.88;0.50;;;;;;;17.48;49.20;100585.91;4727604;30;20056;-95
2022/11/02 16:45:35;;;;;;;0.40;0.40;;;;;;;17.44;49.24;100574.75;4740618;30;20055;-95
2022/11/02 16:48:02;;;;;;;0.40;0.40;;;;;;;17.42;49.26;100578.72;4732302;30;20039;-95
2022/11/02 16:50:28;;;;;;;1.17;0.50;;;;;;;17.49;49.49;100592.13;4725755;30;20131;-95
2022/11/02 16:53:00;;;;;;;1.65;0.40;;;;;;;17.43;49.36;100583.06;4723160;30;20028;-95
2022/11/02 16:55:38;;;;;;;0.40;0.40;;;;;;;17.40;49.54;100576.25;4744642;30;20311;-96
2022/11/02 16:58:04;;;;;;;0.50;0.50;;;;;;;17.38;49.49;100591.84;4718540;30;20038;-95
2022/11/02 17:00:30;;;;;;;0.40;0.30;;;;;;;17.35;49.67;100577.97;4730756;30;20078;-95
2022/11/02 17:02:56;;;;;;;0.68;0.50;;;;;;;17.31;49.64;100576.78;4727382;30;20115;-95
2022/11/02 17:05:23;;;;;;;0.40;0.40;;;;;;;17.33;49.59;100582.78;4730296;30;20131;-95
2022/11/02 17:07:57;;;;;;;0.45;0.45;;;;;;;17.30;49.73;100577.84;4721378;30;20140;-96
2022/11/02 17:10:25;;;;;;;0.30;0.30;;;;;;;17.37;49.76;100589.41;4736526;30;20032;-95
2022/11/02 17:12:51;;;;;;;0.50;0.40;;;;;;;17.24;49.58;100575.00;4736645;30;20143;-95
2022/11/02 17:15:18;;;;;;;0.40;0.40;;;;;;;17.27;49.83;100584.53;4729513;30;20036;-95
2022/11/02 17:17:44;;;;;;;0.30;0.30;;;;;;;17.14;49.97;100577.41;4726419;30;20028;-94
2022/11/02 17:20:20;;;;;;;0.30;0.30;;;;;;;17.32;50.29;100581.97;4725077;30;20050;-95
2022/11/02 17:22:53;;;;;;;1.52;0.47;;;;;;;17.29;50.67;100577.00;4725858;30;20135;-95
2022/11/02 17:25:41;;;;;;;0.65;0.50;;;;;;;17.33;50.40;100570.09;4717459;30;20040;-95
2022/11/02 17:28:37;;;;;;;0.85;0.40;;;;;;;17.46;50.49;100588.84;4722510;30;20048;-95
2022/11/02 17:31:18;;;;;;;0.93;0.40;;;;;;;17.42;50.40;100582.25;4743015;30;20059;-95
2022/11/02 17:33:43;;;;;;;0.47;0.47;;;;;;;17.48;50.50;100591.31;4718987;30;20479;-95
2022/11/02 17:36:09;;;;;;;0.40;0.40;;;;;;;17.50;50.24;100583.81;4724026;30;20056;-95
2022/11/02 17:38:35;;;;;;;1.00;0.35;;;;;;;17.49;50.43;100589.44;4717288;30;20503;-94
2022/11/02 17:41:01;;;;;;;0.45;0.45;;;;;;;17.44;50.37;100579.31;4729998;30;20040;-95
2022/11/02 17:43:26;;;;;;;0.32;0.32;;;;;;;17.44;50.32;100580.16;4723646;30;20072;-96
2022/11/02 17:45:56;;;;;;;0.40;0.40;;;;;;;17.46;50.42;100588.84;4720298;30;20109;-96
2022/11/02 19:20:04;;;;;;;1.00;0.50;;;;;;;17.56;51.58;100598.28;3936251;24;20039;-96
2022/11/02 19:22:30;;;;;;;1.65;0.50;;;;;;;17.60;50.50;100602.19;4820592;29;20042;-96
2022/11/02 19:24:55;;;;;;;5.32;0.60;;;;;;;17.60;50.35;100594.06;4790850;29;20392;-95
2022/11/02 19:27:22;;;;;;;3.72;0.77;;;;;;;17.60;50.18;100584.06;4789700;29;20023;-96
2022/11/02 19:29:48;;;;;;;3.40;0.70;;;;;;;17.68;50.40;100595.63;4790312;29;20090;-96
2022/11/02 19:32:15;;;;;;;1.42;0.50;;;;;;;17.57;50.16;100581.81;4789765;29;20038;-95
2022/11/02 19:34:40;;;;;;;2.25;0.55;;;;;;;17.64;50.13;100582.59;4804983;29;20035;-95
2022/11/02 19:37:06;;;;;;;1.75;0.40;;;;;;;17.69;50.20;100597.28;4784496;29;20505;-95
2022/11/02 19:39:32;;;;;;;2.70;0.50;;;;;;;17.58;50.12;100580.78;4785912;29;20032;-95
2022/11/02 19:41:58;;;;;;;1.33;0.60;;;;;;;17.69;50.10;100597.28;4802528;29;20469;-95
2022/11/02 19:44:23;;;;;;;0.90;0.40;;;;;;;17.60;50.10;100572.44;4788465;29;20057;-95
2022/11/02 19:46:49;;;;;;;1.90;0.50;;;;;;;17.70;50.10;100583.53;4787886;29;20449;-96
2022/11/02 19:49:14;;;;;;;1.13;0.52;;;;;;;17.68;50.16;100582.94;4802512;29;20373;-95
2022/11/02 19:51:40;;;;;;;0.52;0.40;;;;;;;17.70;50.11;100585.41;4802691;29;20489;-94
2022/11/02 19:54:06;;;;;;;1.05;0.43;;;;;;;17.63;50.24;100582.81;4802924;29;20117;-95
2022/11/02 19:56:32;;;;;;;0.40;0.40;;;;;;;17.71;50.09;100584.34;4786222;29;20046;-95
2022/11/02 19:58:58;;;;;;;0.40;0.40;;;;;;;17.65;50.11;100569.88;4800989;29;20423;-95
2022/11/02 20:01:31;;;;;;;1.65;0.30;;;;;;;17.68;50.17;100574.84;4786702;29;20034;-95
2022/11/02 20:03:57;;;;;;;0.75;0.47;;;;;;;17.61;50.13;100572.22;4775187;29;20163;-95
2022/11/02 20:06:23;;;;;;;0.65;0.47;;;;;;;17.73;49.98;100579.53;4787796;29;20663;-95
2022/11/02 20:08:50;;;;;;;0.50;0.50;;;;;;;17.61;50.06;100580.34;4802389;29;20034;-96
2022/11/02 20:11:15;;;;;;;0.40;0.40;;;;;;;17.65;50.20;100573.41;4786536;29;20042;-94
2022/11/02 20:13:42;;;;;;;1.58;0.45;;;;;;;17.64;50.15;100574.47;4818470;29;20178;-95
2022/11/02 20:16:12;;;;;;;0.50;0.50;;;;;;;17.66;50.23;100574.25;4773024;29;20034;-95
2022/11/02 20:18:38;;;;;;;0.40;0.40;;;;;;;17.64;50.06;100569.06;4802443;29;20050;-95
2022/11/02 20:21:11;;;;;;;1.85;0.50;;;;;;;17.65;50.05;100575.28;4802425;29;20027;-95
2022/11/02 20:23:38;;;;;;;0.50;0.40;;;;;;;17.64;50.23;100555.56;4772578;29;20116;-95
2022/11/02 20:26:06;;;;;;;0.32;0.32;;;;;;;17.73;50.06;100571.41;4787208;29;20546;-96
2022/11/02 20:28:33;;;;;;;1.75;0.50;;;;;;;17.65;50.19;100567.19;4802969;29;20050;-95
2022/11/02 20:30:58;;;;;;;0.40;0.40;;;;;;;17.72;50.14;100576.00;4786231;29;20404;-95
2022/11/02 20:33:24;;;;;;;0.40;0.30;;;;;;;17.68;49.97;100590.22;4787495;29;20585;-96
2022/11/02 20:35:50;;;;;;;0.40;0.40;;;;;;;17.62;50.06;100567.63;4802140;29;20043;-95
2022/11/02 20:38:18;;;;;;;0.82;0.50;;;;;;;17.70;50.26;100588.94;4818435;29;20464;-95
2022/11/02 20:40:43;;;;;;;0.32;0.32;;;;;;;17.63;50.21;100577.41;4802884;29;20094;-95
2022/11/02 20:43:09;;;;;;;0.30;0.30;;;;;;;17.67;50.15;100585.88;4801728;29;20552;-95
2022/11/02 20:45:34;;;;;;;0.50;0.50;;;;;;;17.67;50.19;100578.56;4819089;29;20137;-96
2022/11/02 20:48:00;;;;;;;1.45;0.30;;;;;;;17.63;50.15;100569.28;4787266;29;20388;-96
2022/11/02 20:50:27;;;;;;;0.73;0.40;;;;;;;17.65;50.22;100583.41;4802346;29;20038;-95
2022/11/02 20:52:57;;;;;;;0.32;0.30;;;;;;;17.69;49.93;100591.88;4772443;29;20030;-95
2022/11/02 20:55:23;;;;;;;0.52;0.50;;;;;;;17.68;50.00;100574.84;4813473;29;20031;-96
2022/11/02 20:57:49;;;;;;;0.65;0.40;;;;;;;17.65;50.03;100583.41;4801877;29;20114;-95
2022/11/02 21:00:16;;;;;;;0.40;0.40;;;;;;;17.62;50.12;100587.38;4786915;29;20047;-95
2022/11/02 21:02:45;;;;;;;0.40;0.40;;;;;;;17.66;49.97;100593.16;4786062;29;20565;-96
2022/11/02 21:05:11;;;;;;;0.95;0.60;;;;;;;17.60;50.08;100584.06;4788353;29;20934;-95
2022/11/02 21:07:37;;;;;;;0.88;0.40;;;;;;;17.63;50.09;100578.22;4816308;29;20087;-95
2022/11/02 21:10:05;;;;;;;0.30;0.30;;;;;;;17.71;49.91;100597.84;4827341;29;20233;-95
2022/11/02 21:15:15;;;;;;;0.40;0.40;;;;;;;17.73;50.04;100593.03;4803566;29;20108;-87
2022/11/02 21:17:41;;;;;;;1.10;0.40;;;;;;;17.70;50.10;100590.81;4786174;29;20446;-86
2022/11/02 21:20:08;;;;;;;0.73;0.50;;;;;;;17.70;50.16;100577.31;4816619;29;20042;-86
2022/11/02 21:22:34;;;;;;;0.70;0.47;;;;;;;17.70;49.95;100578.13;4818006;29;20042;-86
2022/11/02 21:25:00;;;;;;;0.43;0.43;;;;;;;17.70;49.97;100580.81;4817562;29;20116;-87
2022/11/02 21:27:25;;;;;;;0.45;0.45;;;;;;;17.71;49.97;100579.75;4786201;29;20125;-87
2022/11/02 21:29:51;;;;;;;1.23;0.70;;;;;;;17.67;49.92;100581.28;4785374;29;20125;-87
2022/11/02 21:32:16;;;;;;;0.43;0.43;;;;;;;17.70;49.95;100578.13;4800563;29;20603;-87
2022/11/02 21:34:42;;;;;;;0.68;0.60;;;;;;;17.70;49.97;100578.13;4818404;29;20054;-87
2022/11/02 21:37:08;;;;;;;0.47;0.40;;;;;;;17.69;50.01;100576.47;4800550;29;20511;-87
2022/11/02 21:39:34;;;;;;;0.70;0.40;;;;;;;17.71;49.83;100584.34;4801892;29;20115;-86
2022/11/02 21:42:00;;;;;;;0.85;0.60;;;;;;;17.70;49.99;100578.13;4783899;29;20417;-87
2022/11/02 21:44:29;;;;;;;0.32;0.32;;;;;;;17.71;49.93;100574.34;4817306;29;20031;-87
2022/11/02 21:46:55;;;;;;;0.55;0.50;;;;;;;17.70;49.94;100578.13;4818197;29;20434;-87
2022/11/02 21:49:20;;;;;;;0.50;0.50;;;;;;;17.68;49.95;100582.94;4816936;29;20176;-87
2022/11/02 21:51:46;;;;;;;0.57;0.50;;;;;;;17.68;49.96;100580.25;4818023;29;20317;-87
2022/11/02 21:54:11;;;;;;;0.57;0.50;;;;;;;17.70;50.07;100572.72;4801233;29;20117;-87
2022/11/02 21:56:37;;;;;;;0.75;0.60;;;;;;;17.68;49.96;100574.84;4800655;29;20400;-87
2022/11/02 21:59:04;;;;;;;0.50;0.50;;;;;;;17.61;50.09;100572.22;4800748;29;20030;-87
2022/11/02 22:01:43;;;;;;;1.05;0.40;;;;;;;17.70;49.99;100572.72;4784905;29;20396;-87
2022/11/02 22:04:12;;;;;;;2.58;0.60;;;;;;;17.71;49.97;100589.75;4787241;29;20037;-87
2022/11/02 22:06:37;;;;;;;1.02;0.50;;;;;;;17.70;49.89;100585.41;4786378;29;20030;-87
2022/11/02 22:09:07;;;;;;;0.70;0.50;;;;;;;17.69;50.04;100579.16;4801122;29;20575;-87
2022/11/02 22:11:33;;;;;;;0.98;0.57;;;;;;;17.67;49.99;100583.16;4815785;29;20452;-86
2022/11/02 22:13:59;;;;;;;0.43;0.43;;;;;;;17.65;50.00;100569.88;4816447;29;20125;-86
2022/11/02 22:16:33;;;;;;;0.82;0.60;;;;;;;17.67;49.94;100575.88;4817586;29;20058;-86
2022/11/02 22:19:02;;;;;;;1.45;0.60;;;;;;;17.70;49.84;100583.53;4817107;29;20125;-86
2022/11/02 22:21:30;;;;;;;1.48;0.50;;;;;;;17.70;49.75;100583.53;4786293;29;20073;-86
2022/11/02 22:23:56;;;;;;;0.50;0.50;;;;;;;17.69;49.86;100581.88;4817235;29;20038;-86
2022/11/02 22:26:23;;;;;;;0.75;0.75;;;;;;;17.69;49.75;100584.56;4815475;29;20036;-86
2022/11/02 22:28:48;;;;;;;1.63;0.50;;;;;;;17.68;49.95;100580.25;4817625;29;20065;-86
2022/11/02 22:31:19;;;;;;;0.73;0.50;;;;;;;17.70;49.80;100580.81;4820513;29;20107;-86
2022/11/02 22:33:45;;;;;;;0.45;0.45;;;;;;;17.69;49.89;100581.88;4805728;29;20079;-86
2022/11/02 22:36:15;;;;;;;0.60;0.52;;;;;;;17.61;49.85;100569.53;4806259;29;20056;-86
2022/11/02 22:38:53;;;;;;;1.77;0.52;;;;;;;17.69;49.90;100587.28;4822039;29;20034;-86
2022/11/02 22:41:34;;;;;;;0.63;0.63;;;;;;;17.70;49.77;100588.13;4807668;29;20036;-86
2022/11/02 22:44:02;;;;;;;0.47;0.47;;;;;;;17.67;49.97;100586.69;4821459;29;20042;-86
2022/11/02 22:46:29;;;;;;;0.85;0.50;;;;;;;17.68;49.76;100579.41;4791276;29;20481;-86
2022/11/02 22:48:55;;;;;;;1.00;0.60;;;;;;;17.68;49.93;100577.53;4805349;29;20541;-86
2022/11/02 22:51:22;;;;;;;0.60;0.60;;;;;;;17.67;49.87;100583.97;4805591;29;20040;-86
2022/11/02 22:53:47;;;;;;;1.27;0.60;;;;;;;17.69;49.92;100579.16;4821922;29;20392;-86
2022/11/02 22:56:14;;;;;;;0.77;0.60;;;;;;;17.62;49.79;100573.03;4805133;29;20088;-86
2022/11/02 22:58:41;;;;;;;0.50;0.50;;;;;;;17.70;49.80;100578.13;4805910;29;20548;-86
2022/11/02 23:01:09;;;;;;;0.73;0.60;;;;;;;17.69;49.80;100573.75;4804450;29;20042;-86
2022/11/02 23:03:35;;;;;;;0.55;0.40;;;;;;;17.69;49.88;100579.16;4821881;29;20118;-86
2022/11/02 23:06:05;;;;;;;0.50;0.50;;;;;;;17.59;49.82;100578.91;4821852;29;20054;-86
2022/11/02 23:08:31;;;;;;;0.63;0.60;;;;;;;17.69;49.82;100589.97;4805522;29;20051;-86
2022/11/02 23:13:42;;;;;;;0.60;0.60;;;;;;;17.68;49.78;100588.34;4803836;29;20032;-86
2022/11/02 23:16:20;;;;;;;0.43;0.43;;;;;;;17.64;50.03;100585.28;4803367;29;20038;-86
2022/11/02 23:21:34;;;;;;;0.50;0.50;;;;;;;17.67;49.81;100583.16;4818987;29;20059;-86
2022/11/02 23:26:44;;;;;;;0.63;0.50;;;;;;;17.65;49.87;100586.91;4792499;29;20126;-86
2022/11/02 23:34:37;;;;;;;0.68;0.57;;;;;;;17.66;49.79;100571.53;4818683;29;20042;-86
2022/11/02 23:37:06;;;;;;;0.50;0.50;;;;;;;17.67;49.73;100575.88;4802325;29;20128;-86
2022/11/02 23:39:47;;;;;;;0.98;0.60;;;;;;;17.67;49.92;100583.16;4819314;29;20346;-86
2022/11/02 23:42:13;;;;;;;1.08;0.60;;;;;;;17.65;49.80;100578.00;4789618;29;20126;-86
2022/11/02 23:44:38;;;;;;;0.60;0.60;;;;;;;17.65;49.82;100583.41;4818821;29;20113;-86
2022/11/02 23:47:04;;;;;;;0.47;0.47;;;;;;;17.68;49.86;100582.94;4819268;29;20035;-86
2022/11/02 23:49:29;;;;;;;0.75;0.50;;;;;;;17.67;49.87;100583.97;4802460;29;20034;-86
2022/11/02 23:57:24;;;;;;;0.75;0.50;;;;;;;17.68;49.81;100584.81;4804695;29;20078;-86
2022/11/02 23:59:50;;;;;;;0.60;0.50;;;;;;;17.64;49.76;100576.31;4802797;29;20031;-86
